sensor_id;sensor_type;location;lat;lon;timestamp;P1;durP1;ratioP1;P2;durP2;ratioP2
68126;SDS011;54931;52.098;21.006;2023-07-02T00:00:14;31.50;;;17.30;;
68126;SDS011;54931;52.098;21.006;2023-07-02T00:03:02;33.80;;;18.20;;
68126;SDS011;54931;52.098;21.006;2023-07-02T00:05:30;31.10;;;17.30;;
68126;SDS011;54931;52.098;21.006;2023-07-02T00:07:58;32.00;;;17.90;;
68126;SDS011;54931;52.098;21.006;2023-07-02T00:10:26;33.60;;;18.30;;
68126;SDS011;54931;52.098;21.006;2023-07-02T00:12:54;36.40;;;18.10;;
68126;SDS011;54931;52.098;21.006;2023-07-02T00:15:22;31.00;;;18.10;;
68126;SDS011;54931;52.098;21.006;2023-07-02T00:17:50;32.70;;;17.60;;
68126;SDS011;54931;52.098;21.006;2023-07-02T00:20:17;31.40;;;17.60;;
68126;SDS011;54931;52.098;21.006;2023-07-02T00:22:48;31.90;;;17.20;;
68126;SDS011;54931;52.098;21.006;2023-07-02T00:25:16;32.20;;;17.60;;
68126;SDS011;54931;52.098;21.006;2023-07-02T00:27:44;31.20;;;17.10;;
68126;SDS011;54931;52.098;21.006;2023-07-02T00:30:12;30.80;;;17.50;;
68126;SDS011;54931;52.098;21.006;2023-07-02T00:32:40;31.50;;;17.50;;
68126;SDS011;54931;52.098;21.006;2023-07-02T00:35:08;31.60;;;16.90;;
68126;SDS011;54931;52.098;21.006;2023-07-02T00:37:35;31.40;;;16.80;;
68126;SDS011;54931;52.098;21.006;2023-07-02T00:40:03;32.80;;;17.80;;
68126;SDS011;54931;52.098;21.006;2023-07-02T00:42:32;29.10;;;17.00;;
68126;SDS011;54931;52.098;21.006;2023-07-02T00:45:00;29.90;;;16.30;;
68126;SDS011;54931;52.098;21.006;2023-07-02T00:47:33;35.10;;;17.90;;
68126;SDS011;54931;52.098;21.006;2023-07-02T00:50:02;34.70;;;18.20;;
68126;SDS011;54931;52.098;21.006;2023-07-02T00:52:31;34.90;;;18.30;;
68126;SDS011;54931;52.098;21.006;2023-07-02T00:54:59;34.40;;;18.70;;
68126;SDS011;54931;52.098;21.006;2023-07-02T00:57:26;37.80;;;19.20;;
68126;SDS011;54931;52.098;21.006;2023-07-02T00:59:57;30.30;;;16.90;;
68126;SDS011;54931;52.098;21.006;2023-07-02T01:02:28;35.50;;;18.50;;
68126;SDS011;54931;52.098;21.006;2023-07-02T01:04:57;39.70;;;20.00;;
68126;SDS011;54931;52.098;21.006;2023-07-02T01:07:26;33.60;;;18.40;;
68126;SDS011;54931;52.098;21.006;2023-07-02T01:09:54;41.40;;;21.20;;
68126;SDS011;54931;52.098;21.006;2023-07-02T01:12:23;37.20;;;19.90;;
68126;SDS011;54931;52.098;21.006;2023-07-02T01:14:52;35.30;;;19.50;;
68126;SDS011;54931;52.098;21.006;2023-07-02T01:17:23;37.20;;;19.60;;
68126;SDS011;54931;52.098;21.006;2023-07-02T01:19:55;34.70;;;18.90;;
68126;SDS011;54931;52.098;21.006;2023-07-02T01:22:27;38.80;;;20.60;;
68126;SDS011;54931;52.098;21.006;2023-07-02T01:24:56;38.10;;;20.10;;
68126;SDS011;54931;52.098;21.006;2023-07-02T01:27:28;39.50;;;20.80;;
68126;SDS011;54931;52.098;21.006;2023-07-02T01:29:56;39.90;;;20.80;;
68126;SDS011;54931;52.098;21.006;2023-07-02T01:32:24;41.80;;;21.80;;
68126;SDS011;54931;52.098;21.006;2023-07-02T01:34:52;44.80;;;22.60;;
68126;SDS011;54931;52.098;21.006;2023-07-02T01:37:20;41.20;;;23.00;;
68126;SDS011;54931;52.098;21.006;2023-07-02T01:39:48;40.40;;;20.80;;
68126;SDS011;54931;52.098;21.006;2023-07-02T01:42:19;40.30;;;20.90;;
68126;SDS011;54931;52.098;21.006;2023-07-02T01:44:49;43.20;;;23.10;;
68126;SDS011;54931;52.098;21.006;2023-07-02T01:47:18;41.30;;;20.90;;
68126;SDS011;54931;52.098;21.006;2023-07-02T01:49:47;38.40;;;20.40;;
68126;SDS011;54931;52.098;21.006;2023-07-02T01:52:15;36.40;;;20.30;;
68126;SDS011;54931;52.098;21.006;2023-07-02T01:54:43;40.90;;;20.50;;
68126;SDS011;54931;52.098;21.006;2023-07-02T01:57:12;37.60;;;19.50;;
68126;SDS011;54931;52.098;21.006;2023-07-02T01:59:40;39.80;;;20.60;;
68126;SDS011;54931;52.098;21.006;2023-07-02T02:02:07;37.70;;;19.80;;
68126;SDS011;54931;52.098;21.006;2023-07-02T02:04:35;40.00;;;21.60;;
68126;SDS011;54931;52.098;21.006;2023-07-02T02:07:03;38.90;;;20.70;;
68126;SDS011;54931;52.098;21.006;2023-07-02T02:09:30;38.70;;;20.60;;
68126;SDS011;54931;52.098;21.006;2023-07-02T02:12:00;44.00;;;20.70;;
68126;SDS011;54931;52.098;21.006;2023-07-02T02:14:27;40.10;;;21.30;;
68126;SDS011;54931;52.098;21.006;2023-07-02T02:16:55;39.90;;;21.00;;
68126;SDS011;54931;52.098;21.006;2023-07-02T02:19:22;44.10;;;23.00;;
68126;SDS011;54931;52.098;21.006;2023-07-02T02:21:50;42.30;;;21.10;;
68126;SDS011;54931;52.098;21.006;2023-07-02T02:24:17;42.10;;;21.80;;
68126;SDS011;54931;52.098;21.006;2023-07-02T02:26:45;41.70;;;22.00;;
68126;SDS011;54931;52.098;21.006;2023-07-02T02:29:13;37.40;;;21.10;;
68126;SDS011;54931;52.098;21.006;2023-07-02T02:31:40;36.90;;;20.00;;
68126;SDS011;54931;52.098;21.006;2023-07-02T02:34:08;44.30;;;22.90;;
68126;SDS011;54931;52.098;21.006;2023-07-02T02:36:35;40.30;;;21.30;;
68126;SDS011;54931;52.098;21.006;2023-07-02T02:39:03;41.90;;;21.10;;
68126;SDS011;54931;52.098;21.006;2023-07-02T02:41:31;43.10;;;22.50;;
68126;SDS011;54931;52.098;21.006;2023-07-02T02:43:58;42.60;;;22.50;;
68126;SDS011;54931;52.098;21.006;2023-07-02T02:46:26;41.70;;;22.60;;
68126;SDS011;54931;52.098;21.006;2023-07-02T02:48:53;38.30;;;21.20;;
68126;SDS011;54931;52.098;21.006;2023-07-02T02:51:20;39.90;;;21.20;;
68126;SDS011;54931;52.098;21.006;2023-07-02T02:53:48;42.30;;;22.10;;
68126;SDS011;54931;52.098;21.006;2023-07-02T02:56:16;39.70;;;22.40;;
68126;SDS011;54931;52.098;21.006;2023-07-02T02:58:44;41.70;;;21.80;;
68126;SDS011;54931;52.098;21.006;2023-07-02T03:01:12;42.70;;;22.10;;
68126;SDS011;54931;52.098;21.006;2023-07-02T03:03:40;40.30;;;22.10;;
68126;SDS011;54931;52.098;21.006;2023-07-02T03:06:13;40.60;;;21.20;;
68126;SDS011;54931;52.098;21.006;2023-07-02T03:08:41;39.60;;;21.50;;
68126;SDS011;54931;52.098;21.006;2023-07-02T03:11:09;39.60;;;20.40;;
68126;SDS011;54931;52.098;21.006;2023-07-02T03:13:37;35.50;;;20.80;;
68126;SDS011;54931;52.098;21.006;2023-07-02T03:16:05;37.20;;;20.10;;
68126;SDS011;54931;52.098;21.006;2023-07-02T03:18:33;36.10;;;20.30;;
68126;SDS011;54931;52.098;21.006;2023-07-02T03:21:01;37.50;;;21.40;;
68126;SDS011;54931;52.098;21.006;2023-07-02T03:23:28;35.00;;;20.30;;
68126;SDS011;54931;52.098;21.006;2023-07-02T03:25:57;38.50;;;20.70;;
68126;SDS011;54931;52.098;21.006;2023-07-02T03:28:24;36.40;;;20.10;;
68126;SDS011;54931;52.098;21.006;2023-07-02T03:30:52;36.20;;;19.20;;
68126;SDS011;54931;52.098;21.006;2023-07-02T03:33:20;31.70;;;19.00;;
68126;SDS011;54931;52.098;21.006;2023-07-02T03:35:47;35.40;;;20.00;;
68126;SDS011;54931;52.098;21.006;2023-07-02T03:38:15;35.10;;;20.10;;
68126;SDS011;54931;52.098;21.006;2023-07-02T03:40:43;34.70;;;18.90;;
68126;SDS011;54931;52.098;21.006;2023-07-02T03:43:11;31.70;;;17.90;;
68126;SDS011;54931;52.098;21.006;2023-07-02T03:45:39;37.40;;;20.00;;
68126;SDS011;54931;52.098;21.006;2023-07-02T03:48:08;33.20;;;19.50;;
68126;SDS011;54931;52.098;21.006;2023-07-02T03:50:36;33.20;;;18.60;;
68126;SDS011;54931;52.098;21.006;2023-07-02T03:53:03;33.80;;;19.00;;
68126;SDS011;54931;52.098;21.006;2023-07-02T03:55:31;32.80;;;18.80;;
68126;SDS011;54931;52.098;21.006;2023-07-02T03:57:58;30.50;;;18.40;;
68126;SDS011;54931;52.098;21.006;2023-07-02T04:00:26;29.80;;;17.40;;
68126;SDS011;54931;52.098;21.006;2023-07-02T04:02:54;27.00;;;16.00;;
68126;SDS011;54931;52.098;21.006;2023-07-02T04:05:22;27.00;;;16.80;;
68126;SDS011;54931;52.098;21.006;2023-07-02T04:07:49;28.10;;;17.50;;
68126;SDS011;54931;52.098;21.006;2023-07-02T04:10:17;25.40;;;16.50;;
68126;SDS011;54931;52.098;21.006;2023-07-02T04:12:45;28.80;;;16.60;;
68126;SDS011;54931;52.098;21.006;2023-07-02T04:15:13;30.60;;;15.90;;
68126;SDS011;54931;52.098;21.006;2023-07-02T04:17:41;29.00;;;16.30;;
68126;SDS011;54931;52.098;21.006;2023-07-02T04:20:10;27.50;;;16.40;;
68126;SDS011;54931;52.098;21.006;2023-07-02T04:22:38;26.00;;;15.40;;
68126;SDS011;54931;52.098;21.006;2023-07-02T04:25:06;26.20;;;15.90;;
68126;SDS011;54931;52.098;21.006;2023-07-02T04:27:36;28.90;;;16.10;;
68126;SDS011;54931;52.098;21.006;2023-07-02T04:30:04;25.10;;;14.80;;
68126;SDS011;54931;52.098;21.006;2023-07-02T04:32:33;25.90;;;14.90;;
68126;SDS011;54931;52.098;21.006;2023-07-02T04:35:01;24.70;;;14.30;;
68126;SDS011;54931;52.098;21.006;2023-07-02T04:37:29;20.80;;;13.50;;
68126;SDS011;54931;52.098;21.006;2023-07-02T04:39:57;23.30;;;13.70;;
68126;SDS011;54931;52.098;21.006;2023-07-02T04:42:26;24.90;;;14.00;;
68126;SDS011;54931;52.098;21.006;2023-07-02T04:44:58;21.80;;;13.80;;
68126;SDS011;54931;52.098;21.006;2023-07-02T04:47:30;23.70;;;13.80;;
68126;SDS011;54931;52.098;21.006;2023-07-02T04:49:58;21.70;;;13.40;;
68126;SDS011;54931;52.098;21.006;2023-07-02T04:52:26;19.80;;;12.90;;
68126;SDS011;54931;52.098;21.006;2023-07-02T04:54:54;20.70;;;13.30;;
68126;SDS011;54931;52.098;21.006;2023-07-02T04:57:23;21.80;;;13.20;;
68126;SDS011;54931;52.098;21.006;2023-07-02T04:59:50;23.00;;;12.30;;
68126;SDS011;54931;52.098;21.006;2023-07-02T05:02:18;20.80;;;12.40;;
68126;SDS011;54931;52.098;21.006;2023-07-02T05:04:45;18.50;;;11.60;;
68126;SDS011;54931;52.098;21.006;2023-07-02T05:07:13;18.60;;;11.90;;
68126;SDS011;54931;52.098;21.006;2023-07-02T05:09:40;20.40;;;11.60;;
68126;SDS011;54931;52.098;21.006;2023-07-02T05:12:09;19.90;;;12.00;;
68126;SDS011;54931;52.098;21.006;2023-07-02T05:14:36;19.40;;;12.10;;
68126;SDS011;54931;52.098;21.006;2023-07-02T05:17:04;19.90;;;12.30;;
68126;SDS011;54931;52.098;21.006;2023-07-02T05:19:32;19.90;;;11.70;;
68126;SDS011;54931;52.098;21.006;2023-07-02T05:21:59;16.60;;;11.40;;
68126;SDS011;54931;52.098;21.006;2023-07-02T05:24:27;19.30;;;12.20;;
68126;SDS011;54931;52.098;21.006;2023-07-02T05:26:54;16.70;;;11.10;;
68126;SDS011;54931;52.098;21.006;2023-07-02T05:29:22;19.10;;;11.50;;
68126;SDS011;54931;52.098;21.006;2023-07-02T05:31:49;16.30;;;10.60;;
68126;SDS011;54931;52.098;21.006;2023-07-02T05:34:17;16.80;;;10.70;;
68126;SDS011;54931;52.098;21.006;2023-07-02T05:36:44;16.60;;;11.10;;
68126;SDS011;54931;52.098;21.006;2023-07-02T05:39:12;16.90;;;10.30;;
68126;SDS011;54931;52.098;21.006;2023-07-02T05:41:39;17.70;;;11.00;;
68126;SDS011;54931;52.098;21.006;2023-07-02T05:44:07;16.70;;;10.80;;
68126;SDS011;54931;52.098;21.006;2023-07-02T05:46:35;18.70;;;10.70;;
68126;SDS011;54931;52.098;21.006;2023-07-02T05:49:02;17.00;;;10.80;;
68126;SDS011;54931;52.098;21.006;2023-07-02T05:51:30;14.70;;;9.80;;
68126;SDS011;54931;52.098;21.006;2023-07-02T05:53:57;14.40;;;9.60;;
68126;SDS011;54931;52.098;21.006;2023-07-02T05:56:25;17.80;;;9.90;;
68126;SDS011;54931;52.098;21.006;2023-07-02T05:58:52;14.70;;;9.60;;
68126;SDS011;54931;52.098;21.006;2023-07-02T06:01:20;16.00;;;9.70;;
68126;SDS011;54931;52.098;21.006;2023-07-02T06:03:49;16.90;;;10.00;;
68126;SDS011;54931;52.098;21.006;2023-07-02T06:06:18;15.80;;;10.00;;
68126;SDS011;54931;52.098;21.006;2023-07-02T06:08:45;16.20;;;9.50;;
68126;SDS011;54931;52.098;21.006;2023-07-02T06:11:13;15.40;;;9.80;;
68126;SDS011;54931;52.098;21.006;2023-07-02T06:13:42;14.50;;;9.90;;
68126;SDS011;54931;52.098;21.006;2023-07-02T06:16:09;15.30;;;9.90;;
68126;SDS011;54931;52.098;21.006;2023-07-02T06:18:37;14.10;;;9.60;;
68126;SDS011;54931;52.098;21.006;2023-07-02T06:21:05;16.30;;;9.40;;
68126;SDS011;54931;52.098;21.006;2023-07-02T06:23:45;16.60;;;10.00;;
68126;SDS011;54931;52.098;21.006;2023-07-02T06:26:12;16.60;;;9.20;;
68126;SDS011;54931;52.098;21.006;2023-07-02T06:28:40;14.50;;;8.90;;
68126;SDS011;54931;52.098;21.006;2023-07-02T06:31:07;14.30;;;9.20;;
68126;SDS011;54931;52.098;21.006;2023-07-02T06:33:38;16.80;;;9.90;;
68126;SDS011;54931;52.098;21.006;2023-07-02T06:36:07;16.10;;;8.80;;
68126;SDS011;54931;52.098;21.006;2023-07-02T06:38:35;12.70;;;8.90;;
68126;SDS011;54931;52.098;21.006;2023-07-02T06:41:03;15.30;;;8.50;;
68126;SDS011;54931;52.098;21.006;2023-07-02T06:43:31;15.30;;;9.10;;
68126;SDS011;54931;52.098;21.006;2023-07-02T06:45:58;16.40;;;8.80;;
68126;SDS011;54931;52.098;21.006;2023-07-02T06:48:26;12.70;;;8.70;;
68126;SDS011;54931;52.098;21.006;2023-07-02T06:50:55;16.00;;;8.70;;
68126;SDS011;54931;52.098;21.006;2023-07-02T06:53:23;13.00;;;8.80;;
68126;SDS011;54931;52.098;21.006;2023-07-02T06:55:51;13.90;;;8.40;;
68126;SDS011;54931;52.098;21.006;2023-07-02T06:58:19;13.00;;;7.70;;
68126;SDS011;54931;52.098;21.006;2023-07-02T07:00:47;12.40;;;8.00;;
68126;SDS011;54931;52.098;21.006;2023-07-02T07:03:16;12.50;;;7.20;;
68126;SDS011;54931;52.098;21.006;2023-07-02T07:05:44;13.30;;;7.70;;
68126;SDS011;54931;52.098;21.006;2023-07-02T07:08:11;11.80;;;7.30;;
68126;SDS011;54931;52.098;21.006;2023-07-02T07:10:39;9.80;;;6.90;;
68126;SDS011;54931;52.098;21.006;2023-07-02T07:13:07;9.90;;;6.60;;
68126;SDS011;54931;52.098;21.006;2023-07-02T07:15:35;10.70;;;6.70;;
68126;SDS011;54931;52.098;21.006;2023-07-02T07:18:03;11.10;;;6.80;;
68126;SDS011;54931;52.098;21.006;2023-07-02T07:20:31;9.90;;;6.20;;
68126;SDS011;54931;52.098;21.006;2023-07-02T07:22:58;8.70;;;6.30;;
68126;SDS011;54931;52.098;21.006;2023-07-02T07:25:26;8.50;;;6.50;;
68126;SDS011;54931;52.098;21.006;2023-07-02T07:27:54;10.90;;;6.50;;
68126;SDS011;54931;52.098;21.006;2023-07-02T07:30:22;10.80;;;6.70;;
68126;SDS011;54931;52.098;21.006;2023-07-02T07:32:50;8.80;;;6.10;;
68126;SDS011;54931;52.098;21.006;2023-07-02T07:35:21;10.80;;;6.30;;
68126;SDS011;54931;52.098;21.006;2023-07-02T07:37:49;10.60;;;6.60;;
68126;SDS011;54931;52.098;21.006;2023-07-02T07:40:17;12.00;;;7.30;;
68126;SDS011;54931;52.098;21.006;2023-07-02T07:42:45;11.70;;;6.60;;
68126;SDS011;54931;52.098;21.006;2023-07-02T07:45:12;10.50;;;6.80;;
68126;SDS011;54931;52.098;21.006;2023-07-02T07:47:40;11.90;;;6.80;;
68126;SDS011;54931;52.098;21.006;2023-07-02T07:50:08;9.40;;;6.30;;
68126;SDS011;54931;52.098;21.006;2023-07-02T07:52:40;12.40;;;6.50;;
68126;SDS011;54931;52.098;21.006;2023-07-02T07:55:09;10.00;;;6.10;;
68126;SDS011;54931;52.098;21.006;2023-07-02T07:57:37;9.00;;;5.40;;
68126;SDS011;54931;52.098;21.006;2023-07-02T08:00:05;9.10;;;5.40;;
68126;SDS011;54931;52.098;21.006;2023-07-02T08:02:40;10.50;;;5.30;;
68126;SDS011;54931;52.098;21.006;2023-07-02T08:05:08;8.40;;;5.30;;
68126;SDS011;54931;52.098;21.006;2023-07-02T08:07:39;7.60;;;5.10;;
68126;SDS011;54931;52.098;21.006;2023-07-02T08:10:10;7.80;;;5.00;;
68126;SDS011;54931;52.098;21.006;2023-07-02T08:12:39;10.90;;;5.50;;
68126;SDS011;54931;52.098;21.006;2023-07-02T08:15:07;8.90;;;5.20;;
68126;SDS011;54931;52.098;21.006;2023-07-02T08:17:35;7.60;;;5.10;;
68126;SDS011;54931;52.098;21.006;2023-07-02T08:20:04;8.80;;;5.40;;
68126;SDS011;54931;52.098;21.006;2023-07-02T08:22:32;8.60;;;4.90;;
68126;SDS011;54931;52.098;21.006;2023-07-02T08:24:59;7.20;;;4.90;;
68126;SDS011;54931;52.098;21.006;2023-07-02T08:27:27;6.70;;;5.00;;
68126;SDS011;54931;52.098;21.006;2023-07-02T08:29:55;7.70;;;4.60;;
68126;SDS011;54931;52.098;21.006;2023-07-02T08:32:23;7.30;;;4.20;;
68126;SDS011;54931;52.098;21.006;2023-07-02T08:34:51;5.80;;;4.50;;
68126;SDS011;54931;52.098;21.006;2023-07-02T08:37:20;9.10;;;4.60;;
68126;SDS011;54931;52.098;21.006;2023-07-02T08:39:49;7.10;;;4.50;;
68126;SDS011;54931;52.098;21.006;2023-07-02T08:42:17;7.90;;;4.10;;
68126;SDS011;54931;52.098;21.006;2023-07-02T08:44:46;5.80;;;4.40;;
68126;SDS011;54931;52.098;21.006;2023-07-02T08:47:15;10.20;;;4.60;;
68126;SDS011;54931;52.098;21.006;2023-07-02T08:49:42;7.20;;;4.10;;
68126;SDS011;54931;52.098;21.006;2023-07-02T08:52:10;5.20;;;4.10;;
68126;SDS011;54931;52.098;21.006;2023-07-02T08:54:37;4.80;;;3.90;;
68126;SDS011;54931;52.098;21.006;2023-07-02T08:57:05;7.80;;;4.30;;
68126;SDS011;54931;52.098;21.006;2023-07-02T08:59:35;6.00;;;3.80;;
68126;SDS011;54931;52.098;21.006;2023-07-02T09:02:04;6.00;;;3.70;;
68126;SDS011;54931;52.098;21.006;2023-07-02T09:04:32;6.10;;;4.40;;
68126;SDS011;54931;52.098;21.006;2023-07-02T09:07:10;7.40;;;4.30;;
68126;SDS011;54931;52.098;21.006;2023-07-02T09:09:46;7.30;;;4.20;;
68126;SDS011;54931;52.098;21.006;2023-07-02T09:12:30;6.50;;;4.20;;
68126;SDS011;54931;52.098;21.006;2023-07-02T09:15:01;5.10;;;3.90;;
68126;SDS011;54931;52.098;21.006;2023-07-02T09:17:36;8.10;;;4.10;;
68126;SDS011;54931;52.098;21.006;2023-07-02T09:20:05;6.80;;;4.20;;
68126;SDS011;54931;52.098;21.006;2023-07-02T09:22:36;6.30;;;4.20;;
68126;SDS011;54931;52.098;21.006;2023-07-02T09:25:06;6.70;;;4.40;;
68126;SDS011;54931;52.098;21.006;2023-07-02T09:27:40;10.20;;;4.60;;
68126;SDS011;54931;52.098;21.006;2023-07-02T09:30:15;6.10;;;4.40;;
68126;SDS011;54931;52.098;21.006;2023-07-02T09:32:44;5.70;;;4.50;;
68126;SDS011;54931;52.098;21.006;2023-07-02T09:35:13;5.10;;;4.00;;
68126;SDS011;54931;52.098;21.006;2023-07-02T09:37:46;6.10;;;4.00;;
68126;SDS011;54931;52.098;21.006;2023-07-02T09:40:15;5.30;;;4.10;;
68126;SDS011;54931;52.098;21.006;2023-07-02T09:42:45;6.60;;;4.40;;
68126;SDS011;54931;52.098;21.006;2023-07-02T09:45:22;6.10;;;4.70;;
68126;SDS011;54931;52.098;21.006;2023-07-02T09:47:51;5.80;;;4.40;;
68126;SDS011;54931;52.098;21.006;2023-07-02T09:50:23;5.80;;;4.30;;
68126;SDS011;54931;52.098;21.006;2023-07-02T09:52:52;5.00;;;4.00;;
68126;SDS011;54931;52.098;21.006;2023-07-02T09:55:21;6.70;;;4.50;;
68126;SDS011;54931;52.098;21.006;2023-07-02T09:57:49;7.60;;;4.50;;
68126;SDS011;54931;52.098;21.006;2023-07-02T10:00:17;7.10;;;4.00;;
68126;SDS011;54931;52.098;21.006;2023-07-02T10:02:48;6.70;;;4.40;;
68126;SDS011;54931;52.098;21.006;2023-07-02T10:05:30;5.70;;;4.10;;
68126;SDS011;54931;52.098;21.006;2023-07-02T10:08:15;6.20;;;4.40;;
68126;SDS011;54931;52.098;21.006;2023-07-02T10:10:48;7.50;;;4.40;;
68126;SDS011;54931;52.098;21.006;2023-07-02T10:13:26;6.80;;;4.30;;
68126;SDS011;54931;52.098;21.006;2023-07-02T10:16:02;8.30;;;4.00;;
68126;SDS011;54931;52.098;21.006;2023-07-02T10:18:33;12.50;;;3.90;;
68126;SDS011;54931;52.098;21.006;2023-07-02T10:21:13;4.20;;;3.40;;
68126;SDS011;54931;52.098;21.006;2023-07-02T10:23:42;5.20;;;3.40;;
68126;SDS011;54931;52.098;21.006;2023-07-02T10:26:15;5.40;;;3.10;;
68126;SDS011;54931;52.098;21.006;2023-07-02T10:28:58;4.90;;;3.10;;
68126;SDS011;54931;52.098;21.006;2023-07-02T10:31:26;5.20;;;2.90;;
68126;SDS011;54931;52.098;21.006;2023-07-02T10:33:55;4.00;;;3.40;;
68126;SDS011;54931;52.098;21.006;2023-07-02T10:36:24;5.90;;;3.20;;
68126;SDS011;54931;52.098;21.006;2023-07-02T10:38:52;3.40;;;3.10;;
68126;SDS011;54931;52.098;21.006;2023-07-02T10:41:28;7.10;;;3.00;;
68126;SDS011;54931;52.098;21.006;2023-07-02T10:44:09;4.10;;;3.00;;
68126;SDS011;54931;52.098;21.006;2023-07-02T10:46:47;5.00;;;3.00;;
68126;SDS011;54931;52.098;21.006;2023-07-02T10:49:18;2.80;;;2.50;;
68126;SDS011;54931;52.098;21.006;2023-07-02T10:51:59;5.60;;;2.80;;
68126;SDS011;54931;52.098;21.006;2023-07-02T10:54:45;5.00;;;3.10;;
68126;SDS011;54931;52.098;21.006;2023-07-02T10:57:18;3.20;;;2.60;;
68126;SDS011;54931;52.098;21.006;2023-07-02T10:59:51;4.10;;;2.70;;
68126;SDS011;54931;52.098;21.006;2023-07-02T11:02:19;3.60;;;3.00;;
68126;SDS011;54931;52.098;21.006;2023-07-02T11:04:50;4.50;;;2.90;;
68126;SDS011;54931;52.098;21.006;2023-07-02T11:07:22;4.70;;;2.90;;
68126;SDS011;54931;52.098;21.006;2023-07-02T11:09:51;4.90;;;2.80;;
68126;SDS011;54931;52.098;21.006;2023-07-02T11:12:30;4.40;;;2.90;;
68126;SDS011;54931;52.098;21.006;2023-07-02T11:15:13;5.40;;;3.10;;
68126;SDS011;54931;52.098;21.006;2023-07-02T11:17:43;5.10;;;3.10;;
68126;SDS011;54931;52.098;21.006;2023-07-02T11:20:12;3.60;;;2.90;;
68126;SDS011;54931;52.098;21.006;2023-07-02T11:22:43;3.40;;;3.10;;
68126;SDS011;54931;52.098;21.006;2023-07-02T11:25:16;5.10;;;3.00;;
68126;SDS011;54931;52.098;21.006;2023-07-02T11:27:47;4.70;;;2.90;;
68126;SDS011;54931;52.098;21.006;2023-07-02T11:30:15;3.40;;;2.90;;
68126;SDS011;54931;52.098;21.006;2023-07-02T11:32:54;5.70;;;2.80;;
68126;SDS011;54931;52.098;21.006;2023-07-02T11:35:34;4.20;;;2.60;;
68126;SDS011;54931;52.098;21.006;2023-07-02T11:38:04;3.80;;;2.50;;
68126;SDS011;54931;52.098;21.006;2023-07-02T11:40:32;4.90;;;2.80;;
68126;SDS011;54931;52.098;21.006;2023-07-02T11:43:00;5.90;;;2.80;;
68126;SDS011;54931;52.098;21.006;2023-07-02T11:45:28;5.20;;;2.50;;
68126;SDS011;54931;52.098;21.006;2023-07-02T11:47:56;4.30;;;2.30;;
68126;SDS011;54931;52.098;21.006;2023-07-02T11:50:24;2.90;;;2.40;;
68126;SDS011;54931;52.098;21.006;2023-07-02T11:52:53;3.10;;;2.60;;
68126;SDS011;54931;52.098;21.006;2023-07-02T11:55:21;3.20;;;2.60;;
68126;SDS011;54931;52.098;21.006;2023-07-02T11:57:49;3.50;;;2.50;;
68126;SDS011;54931;52.098;21.006;2023-07-02T12:00:18;3.20;;;2.80;;
68126;SDS011;54931;52.098;21.006;2023-07-02T12:02:46;3.50;;;2.70;;
68126;SDS011;54931;52.098;21.006;2023-07-02T12:05:14;4.00;;;2.90;;
68126;SDS011;54931;52.098;21.006;2023-07-02T12:07:42;3.80;;;2.80;;
68126;SDS011;54931;52.098;21.006;2023-07-02T12:10:10;3.10;;;2.30;;
68126;SDS011;54931;52.098;21.006;2023-07-02T12:12:38;5.10;;;2.70;;
68126;SDS011;54931;52.098;21.006;2023-07-02T12:15:06;6.20;;;2.60;;
68126;SDS011;54931;52.098;21.006;2023-07-02T12:17:35;5.50;;;2.80;;
68126;SDS011;54931;52.098;21.006;2023-07-02T12:20:03;4.70;;;2.70;;
68126;SDS011;54931;52.098;21.006;2023-07-02T12:22:31;3.90;;;2.80;;
68126;SDS011;54931;52.098;21.006;2023-07-02T12:24:59;5.50;;;2.70;;
68126;SDS011;54931;52.098;21.006;2023-07-02T12:27:27;4.60;;;2.80;;
68126;SDS011;54931;52.098;21.006;2023-07-02T12:29:56;4.70;;;2.20;;
68126;SDS011;54931;52.098;21.006;2023-07-02T12:32:24;3.50;;;2.90;;
68126;SDS011;54931;52.098;21.006;2023-07-02T12:34:52;4.00;;;2.70;;
68126;SDS011;54931;52.098;21.006;2023-07-02T12:37:20;3.30;;;2.60;;
68126;SDS011;54931;52.098;21.006;2023-07-02T12:39:48;3.50;;;2.90;;
68126;SDS011;54931;52.098;21.006;2023-07-02T12:42:16;3.50;;;2.70;;
68126;SDS011;54931;52.098;21.006;2023-07-02T12:44:44;4.40;;;2.30;;
68126;SDS011;54931;52.098;21.006;2023-07-02T12:47:12;4.80;;;2.40;;
68126;SDS011;54931;52.098;21.006;2023-07-02T12:49:41;4.80;;;2.40;;
68126;SDS011;54931;52.098;21.006;2023-07-02T12:52:09;10.10;;;2.50;;
68126;SDS011;54931;52.098;21.006;2023-07-02T12:54:37;4.80;;;2.30;;
68126;SDS011;54931;52.098;21.006;2023-07-02T12:57:06;9.10;;;2.60;;
68126;SDS011;54931;52.098;21.006;2023-07-02T12:59:34;3.10;;;2.50;;
68126;SDS011;54931;52.098;21.006;2023-07-02T13:02:03;6.10;;;2.60;;
68126;SDS011;54931;52.098;21.006;2023-07-02T13:04:33;3.40;;;2.50;;
68126;SDS011;54931;52.098;21.006;2023-07-02T13:07:01;3.80;;;2.70;;
68126;SDS011;54931;52.098;21.006;2023-07-02T13:09:30;3.20;;;2.00;;
68126;SDS011;54931;52.098;21.006;2023-07-02T13:11:59;2.30;;;2.00;;
68126;SDS011;54931;52.098;21.006;2023-07-02T13:14:28;2.80;;;2.20;;
68126;SDS011;54931;52.098;21.006;2023-07-02T13:16:58;2.90;;;2.00;;
68126;SDS011;54931;52.098;21.006;2023-07-02T13:19:33;5.10;;;2.20;;
68126;SDS011;54931;52.098;21.006;2023-07-02T13:22:02;3.60;;;2.00;;
68126;SDS011;54931;52.098;21.006;2023-07-02T13:24:34;4.10;;;2.20;;
68126;SDS011;54931;52.098;21.006;2023-07-02T13:27:12;2.80;;;1.90;;
68126;SDS011;54931;52.098;21.006;2023-07-02T13:29:42;4.30;;;2.10;;
68126;SDS011;54931;52.098;21.006;2023-07-02T13:32:10;4.60;;;2.00;;
68126;SDS011;54931;52.098;21.006;2023-07-02T13:34:38;3.50;;;2.00;;
68126;SDS011;54931;52.098;21.006;2023-07-02T13:37:08;4.40;;;2.10;;
68126;SDS011;54931;52.098;21.006;2023-07-02T13:39:37;3.50;;;2.00;;
68126;SDS011;54931;52.098;21.006;2023-07-02T13:42:05;4.00;;;2.30;;
68126;SDS011;54931;52.098;21.006;2023-07-02T13:44:33;7.50;;;2.10;;
68126;SDS011;54931;52.098;21.006;2023-07-02T13:47:02;5.00;;;2.20;;
68126;SDS011;54931;52.098;21.006;2023-07-02T13:49:31;3.40;;;2.10;;
68126;SDS011;54931;52.098;21.006;2023-07-02T13:52:00;2.50;;;2.20;;
68126;SDS011;54931;52.098;21.006;2023-07-02T13:54:38;7.30;;;2.40;;
68126;SDS011;54931;52.098;21.006;2023-07-02T13:57:06;3.10;;;2.40;;
68126;SDS011;54931;52.098;21.006;2023-07-02T13:59:34;2.90;;;2.20;;
68126;SDS011;54931;52.098;21.006;2023-07-02T14:02:02;4.00;;;2.40;;
68126;SDS011;54931;52.098;21.006;2023-07-02T14:04:31;3.40;;;2.20;;
68126;SDS011;54931;52.098;21.006;2023-07-02T14:06:59;3.80;;;2.20;;
68126;SDS011;54931;52.098;21.006;2023-07-02T14:09:27;6.60;;;2.30;;
68126;SDS011;54931;52.098;21.006;2023-07-02T14:11:56;5.00;;;2.40;;
68126;SDS011;54931;52.098;21.006;2023-07-02T14:14:25;3.20;;;2.30;;
68126;SDS011;54931;52.098;21.006;2023-07-02T14:16:53;3.20;;;2.40;;
68126;SDS011;54931;52.098;21.006;2023-07-02T14:19:21;4.00;;;2.70;;
68126;SDS011;54931;52.098;21.006;2023-07-02T14:21:49;5.70;;;2.40;;
68126;SDS011;54931;52.098;21.006;2023-07-02T14:24:18;3.80;;;2.20;;
68126;SDS011;54931;52.098;21.006;2023-07-02T14:26:46;5.10;;;2.80;;
68126;SDS011;54931;52.098;21.006;2023-07-02T14:29:14;5.80;;;2.80;;
68126;SDS011;54931;52.098;21.006;2023-07-02T14:31:43;4.30;;;2.30;;